sensor_id;sensor_type;location;lat;lon;timestamp;P1;durP1;ratioP1;P2;durP2;ratioP2
40669;SDS011;26355;45.528;9.234;2023-02-27T00:02:08;11.30;;;3.78;;
40669;SDS011;26355;45.528;9.234;2023-02-27T00:04:33;14.80;;;4.00;;
40669;SDS011;26355;45.528;9.234;2023-02-27T00:06:59;13.25;;;3.95;;
40669;SDS011;26355;45.528;9.234;2023-02-27T00:09:25;11.57;;;4.20;;
40669;SDS011;26355;45.528;9.234;2023-02-27T00:11:50;10.70;;;3.53;;
40669;SDS011;26355;45.528;9.234;2023-02-27T00:14:16;10.43;;;3.30;;
40669;SDS011;26355;45.528;9.234;2023-02-27T00:16:42;10.15;;;3.63;;
40669;SDS011;26355;45.528;9.234;2023-02-27T00:19:08;11.20;;;3.10;;
40669;SDS011;26355;45.528;9.234;2023-02-27T00:21:33;6.95;;;2.72;;
40669;SDS011;26355;45.528;9.234;2023-02-27T00:24:00;8.23;;;3.28;;
40669;SDS011;26355;45.528;9.234;2023-02-27T00:26:26;7.15;;;2.70;;
40669;SDS011;26355;45.528;9.234;2023-02-27T00:28:51;7.53;;;2.80;;
40669;SDS011;26355;45.528;9.234;2023-02-27T00:31:17;8.95;;;2.80;;
40669;SDS011;26355;45.528;9.234;2023-02-27T00:33:42;8.13;;;3.00;;
40669;SDS011;26355;45.528;9.234;2023-02-27T00:36:08;8.45;;;2.50;;
40669;SDS011;26355;45.528;9.234;2023-02-27T00:38:34;8.02;;;2.75;;
40669;SDS011;26355;45.528;9.234;2023-02-27T00:40:59;8.00;;;2.78;;
40669;SDS011;26355;45.528;9.234;2023-02-27T00:43:25;7.45;;;3.00;;
40669;SDS011;26355;45.528;9.234;2023-02-27T00:45:50;9.23;;;2.83;;
40669;SDS011;26355;45.528;9.234;2023-02-27T00:48:16;7.15;;;2.47;;
40669;SDS011;26355;45.528;9.234;2023-02-27T00:50:42;7.35;;;2.35;;
40669;SDS011;26355;45.528;9.234;2023-02-27T00:53:07;5.72;;;2.20;;
40669;SDS011;26355;45.528;9.234;2023-02-27T00:55:33;8.02;;;2.70;;
40669;SDS011;26355;45.528;9.234;2023-02-27T00:57:58;8.07;;;2.53;;
40669;SDS011;26355;45.528;9.234;2023-02-27T01:00:24;6.53;;;2.50;;
40669;SDS011;26355;45.528;9.234;2023-02-27T01:02:50;6.75;;;2.60;;
40669;SDS011;26355;45.528;9.234;2023-02-27T01:05:16;9.25;;;3.15;;
40669;SDS011;26355;45.528;9.234;2023-02-27T01:07:41;7.07;;;2.65;;
40669;SDS011;26355;45.528;9.234;2023-02-27T01:10:07;6.50;;;2.55;;
40669;SDS011;26355;45.528;9.234;2023-02-27T01:12:34;8.80;;;2.80;;
40669;SDS011;26355;45.528;9.234;2023-02-27T01:15:00;7.55;;;2.33;;
40669;SDS011;26355;45.528;9.234;2023-02-27T01:17:26;5.90;;;2.40;;
40669;SDS011;26355;45.528;9.234;2023-02-27T01:19:51;5.70;;;2.38;;
40669;SDS011;26355;45.528;9.234;2023-02-27T01:22:17;5.82;;;2.30;;
40669;SDS011;26355;45.528;9.234;2023-02-27T01:24:42;6.28;;;2.50;;
40669;SDS011;26355;45.528;9.234;2023-02-27T01:27:08;6.93;;;2.40;;
40669;SDS011;26355;45.528;9.234;2023-02-27T01:29:34;7.20;;;2.42;;
40669;SDS011;26355;45.528;9.234;2023-02-27T01:31:59;5.63;;;2.25;;
40669;SDS011;26355;45.528;9.234;2023-02-27T01:34:25;6.47;;;2.60;;
40669;SDS011;26355;45.528;9.234;2023-02-27T01:36:50;6.53;;;2.40;;
40669;SDS011;26355;45.528;9.234;2023-02-27T01:39:16;6.47;;;2.55;;
40669;SDS011;26355;45.528;9.234;2023-02-27T01:41:41;7.07;;;2.70;;
40669;SDS011;26355;45.528;9.234;2023-02-27T01:44:08;5.60;;;2.50;;
40669;SDS011;26355;45.528;9.234;2023-02-27T01:46:35;7.40;;;2.95;;
40669;SDS011;26355;45.528;9.234;2023-02-27T01:49:05;8.50;;;3.00;;
40669;SDS011;26355;45.528;9.234;2023-02-27T01:51:48;8.55;;;2.85;;
40669;SDS011;26355;45.528;9.234;2023-02-27T01:54:20;7.28;;;2.70;;
40669;SDS011;26355;45.528;9.234;2023-02-27T01:56:49;6.65;;;2.42;;
40669;SDS011;26355;45.528;9.234;2023-02-27T01:59:14;6.45;;;2.63;;
40669;SDS011;26355;45.528;9.234;2023-02-27T02:01:42;6.60;;;2.40;;
40669;SDS011;26355;45.528;9.234;2023-02-27T02:04:14;6.00;;;2.50;;
40669;SDS011;26355;45.528;9.234;2023-02-27T02:06:53;6.28;;;2.42;;
40669;SDS011;26355;45.528;9.234;2023-02-27T02:09:23;6.90;;;2.55;;
40669;SDS011;26355;45.528;9.234;2023-02-27T02:11:50;6.60;;;2.53;;
40669;SDS011;26355;45.528;9.234;2023-02-27T02:14:16;5.88;;;2.50;;
40669;SDS011;26355;45.528;9.234;2023-02-27T02:33:00;9.82;;;4.05;;
40669;SDS011;26355;45.528;9.234;2023-02-27T02:38:44;6.40;;;2.72;;
40669;SDS011;26355;45.528;9.234;2023-02-27T02:41:26;8.93;;;3.22;;
40669;SDS011;26355;45.528;9.234;2023-02-27T02:44:22;7.07;;;3.03;;
40669;SDS011;26355;45.528;9.234;2023-02-27T02:49:26;9.68;;;2.90;;
40669;SDS011;26355;45.528;9.234;2023-02-27T02:52:04;7.75;;;2.95;;
40669;SDS011;26355;45.528;9.234;2023-02-27T02:55:05;7.70;;;3.00;;
40669;SDS011;26355;45.528;9.234;2023-02-27T03:00:45;7.55;;;3.30;;
40669;SDS011;26355;45.528;9.234;2023-02-27T03:03:30;8.45;;;3.22;;
40669;SDS011;26355;45.528;9.234;2023-02-27T03:06:11;9.25;;;3.30;;
40669;SDS011;26355;45.528;9.234;2023-02-27T03:08:48;7.75;;;3.08;;
40669;SDS011;26355;45.528;9.234;2023-02-27T03:11:20;9.30;;;3.35;;
40669;SDS011;26355;45.528;9.234;2023-02-27T03:16:43;8.35;;;3.35;;
40669;SDS011;26355;45.528;9.234;2023-02-27T03:19:14;8.27;;;3.00;;
40669;SDS011;26355;45.528;9.234;2023-02-27T03:24:12;5.18;;;2.63;;
40669;SDS011;26355;45.528;9.234;2023-02-27T03:26:47;6.53;;;2.67;;
40669;SDS011;26355;45.528;9.234;2023-02-27T03:29:18;9.52;;;3.63;;
40669;SDS011;26355;45.528;9.234;2023-02-27T03:32:14;9.07;;;2.95;;
40669;SDS011;26355;45.528;9.234;2023-02-27T03:34:44;7.95;;;2.90;;
40669;SDS011;26355;45.528;9.234;2023-02-27T03:37:31;7.80;;;3.15;;
40669;SDS011;26355;45.528;9.234;2023-02-27T03:40:26;8.93;;;3.20;;
40669;SDS011;26355;45.528;9.234;2023-02-27T03:45:44;7.00;;;3.03;;
40669;SDS011;26355;45.528;9.234;2023-02-27T03:48:12;8.82;;;3.08;;
40669;SDS011;26355;45.528;9.234;2023-02-27T03:50:38;10.07;;;3.33;;
40669;SDS011;26355;45.528;9.234;2023-02-27T03:53:04;7.40;;;2.95;;
40669;SDS011;26355;45.528;9.234;2023-02-27T03:55:37;9.05;;;3.13;;
40669;SDS011;26355;45.528;9.234;2023-02-27T03:58:05;8.50;;;3.30;;
40669;SDS011;26355;45.528;9.234;2023-02-27T04:00:30;7.43;;;2.80;;
40669;SDS011;26355;45.528;9.234;2023-02-27T04:02:58;7.38;;;2.65;;
40669;SDS011;26355;45.528;9.234;2023-02-27T04:05:25;6.10;;;2.75;;
40669;SDS011;26355;45.528;9.234;2023-02-27T04:08:00;7.82;;;2.80;;
40669;SDS011;26355;45.528;9.234;2023-02-27T04:13:24;5.63;;;2.50;;
40669;SDS011;26355;45.528;9.234;2023-02-27T04:19:01;9.43;;;2.50;;
40669;SDS011;26355;45.528;9.234;2023-02-27T04:32:21;6.68;;;2.60;;
40669;SDS011;26355;45.528;9.234;2023-02-27T04:35:01;7.88;;;2.83;;
40669;SDS011;26355;45.528;9.234;2023-02-27T04:37:36;6.88;;;2.67;;
40669;SDS011;26355;45.528;9.234;2023-02-27T04:50:02;7.38;;;2.85;;
40669;SDS011;26355;45.528;9.234;2023-02-27T04:52:44;6.35;;;2.80;;
40669;SDS011;26355;45.528;9.234;2023-02-27T04:55:33;9.13;;;3.13;;
40669;SDS011;26355;45.528;9.234;2023-02-27T04:58:08;6.53;;;2.63;;
40669;SDS011;26355;45.528;9.234;2023-02-27T05:01:05;8.30;;;3.30;;
40669;SDS011;26355;45.528;9.234;2023-02-27T05:03:39;6.95;;;2.78;;
40669;SDS011;26355;45.528;9.234;2023-02-27T05:06:08;7.53;;;2.92;;
40669;SDS011;26355;45.528;9.234;2023-02-27T05:08:37;6.80;;;3.00;;
40669;SDS011;26355;45.528;9.234;2023-02-27T05:11:24;8.75;;;2.97;;
40669;SDS011;26355;45.528;9.234;2023-02-27T05:14:18;6.85;;;2.63;;
40669;SDS011;26355;45.528;9.234;2023-02-27T05:19:52;6.72;;;2.75;;
40669;SDS011;26355;45.528;9.234;2023-02-27T05:30:16;6.47;;;2.75;;
40669;SDS011;26355;45.528;9.234;2023-02-27T05:35:35;7.80;;;3.15;;
40669;SDS011;26355;45.528;9.234;2023-02-27T05:38:11;8.68;;;3.00;;
40669;SDS011;26355;45.528;9.234;2023-02-27T05:40:47;6.68;;;2.88;;
40669;SDS011;26355;45.528;9.234;2023-02-27T05:43:21;7.88;;;2.92;;
40669;SDS011;26355;45.528;9.234;2023-02-27T05:45:51;8.82;;;3.10;;
40669;SDS011;26355;45.528;9.234;2023-02-27T05:48:29;8.88;;;2.92;;
40669;SDS011;26355;45.528;9.234;2023-02-27T05:50:59;8.13;;;3.05;;
40669;SDS011;26355;45.528;9.234;2023-02-27T05:53:30;7.65;;;2.72;;
40669;SDS011;26355;45.528;9.234;2023-02-27T05:56:00;8.52;;;3.28;;
40669;SDS011;26355;45.528;9.234;2023-02-27T05:58:31;10.55;;;3.72;;
40669;SDS011;26355;45.528;9.234;2023-02-27T06:01:06;6.85;;;2.55;;
40669;SDS011;26355;45.528;9.234;2023-02-27T06:03:34;9.25;;;3.20;;
40669;SDS011;26355;45.528;9.234;2023-02-27T06:06:02;8.63;;;2.95;;
40669;SDS011;26355;45.528;9.234;2023-02-27T06:08:31;10.55;;;3.30;;
40669;SDS011;26355;45.528;9.234;2023-02-27T06:10:57;6.43;;;2.72;;
40669;SDS011;26355;45.528;9.234;2023-02-27T06:13:22;7.85;;;3.03;;
40669;SDS011;26355;45.528;9.234;2023-02-27T06:15:48;12.57;;;3.55;;
40669;SDS011;26355;45.528;9.234;2023-02-27T06:18:15;10.45;;;4.03;;
40669;SDS011;26355;45.528;9.234;2023-02-27T06:20:41;8.85;;;3.47;;
40669;SDS011;26355;45.528;9.234;2023-02-27T06:23:08;9.00;;;3.47;;
40669;SDS011;26355;45.528;9.234;2023-02-27T06:25:34;12.40;;;3.85;;
40669;SDS011;26355;45.528;9.234;2023-02-27T06:28:00;9.77;;;3.50;;
40669;SDS011;26355;45.528;9.234;2023-02-27T06:30:26;9.35;;;3.80;;
40669;SDS011;26355;45.528;9.234;2023-02-27T06:32:51;10.98;;;3.90;;
40669;SDS011;26355;45.528;9.234;2023-02-27T06:35:17;11.52;;;4.00;;
40669;SDS011;26355;45.528;9.234;2023-02-27T06:37:43;10.23;;;4.22;;
40669;SDS011;26355;45.528;9.234;2023-02-27T06:40:09;10.65;;;3.97;;
40669;SDS011;26355;45.528;9.234;2023-02-27T06:42:41;13.95;;;4.78;;
40669;SDS011;26355;45.528;9.234;2023-02-27T06:45:09;11.75;;;4.20;;
40669;SDS011;26355;45.528;9.234;2023-02-27T06:47:36;12.13;;;4.53;;
40669;SDS011;26355;45.528;9.234;2023-02-27T06:50:02;11.07;;;3.97;;
40669;SDS011;26355;45.528;9.234;2023-02-27T06:52:29;11.48;;;4.60;;
40669;SDS011;26355;45.528;9.234;2023-02-27T06:54:55;11.32;;;4.50;;
40669;SDS011;26355;45.528;9.234;2023-02-27T06:57:21;13.10;;;4.70;;
40669;SDS011;26355;45.528;9.234;2023-02-27T06:59:46;14.27;;;4.93;;
40669;SDS011;26355;45.528;9.234;2023-02-27T07:02:13;9.80;;;3.72;;
40669;SDS011;26355;45.528;9.234;2023-02-27T07:04:39;10.00;;;3.70;;
40669;SDS011;26355;45.528;9.234;2023-02-27T07:07:05;10.52;;;3.78;;
40669;SDS011;26355;45.528;9.234;2023-02-27T07:09:31;10.88;;;3.40;;
40669;SDS011;26355;45.528;9.234;2023-02-27T07:11:57;8.77;;;3.38;;
40669;SDS011;26355;45.528;9.234;2023-02-27T07:14:22;12.20;;;3.80;;
40669;SDS011;26355;45.528;9.234;2023-02-27T07:16:49;13.00;;;3.55;;
40669;SDS011;26355;45.528;9.234;2023-02-27T07:19:19;10.38;;;3.58;;
40669;SDS011;26355;45.528;9.234;2023-02-27T07:21:45;10.85;;;3.58;;
40669;SDS011;26355;45.528;9.234;2023-02-27T07:24:10;9.48;;;3.40;;
40669;SDS011;26355;45.528;9.234;2023-02-27T07:26:36;9.73;;;3.10;;
40669;SDS011;26355;45.528;9.234;2023-02-27T07:29:02;8.70;;;3.47;;
40669;SDS011;26355;45.528;9.234;2023-02-27T07:31:28;11.48;;;3.40;;
40669;SDS011;26355;45.528;9.234;2023-02-27T07:33:54;10.20;;;3.30;;
40669;SDS011;26355;45.528;9.234;2023-02-27T07:36:19;12.23;;;3.38;;
40669;SDS011;26355;45.528;9.234;2023-02-27T07:38:45;10.32;;;3.08;;
40669;SDS011;26355;45.528;9.234;2023-02-27T07:41:11;9.57;;;3.40;;
40669;SDS011;26355;45.528;9.234;2023-02-27T07:43:36;8.68;;;3.30;;
40669;SDS011;26355;45.528;9.234;2023-02-27T07:46:02;11.90;;;3.83;;
40669;SDS011;26355;45.528;9.234;2023-02-27T07:48:28;12.35;;;3.60;;
40669;SDS011;26355;45.528;9.234;2023-02-27T07:50:54;10.00;;;3.63;;
40669;SDS011;26355;45.528;9.234;2023-02-27T07:53:20;11.60;;;3.92;;
40669;SDS011;26355;45.528;9.234;2023-02-27T07:55:46;10.65;;;3.60;;
40669;SDS011;26355;45.528;9.234;2023-02-27T07:58:11;11.38;;;3.50;;
40669;SDS011;26355;45.528;9.234;2023-02-27T08:00:37;12.60;;;3.85;;
40669;SDS011;26355;45.528;9.234;2023-02-27T08:03:03;9.40;;;3.67;;
40669;SDS011;26355;45.528;9.234;2023-02-27T08:05:31;9.65;;;3.47;;
40669;SDS011;26355;45.528;9.234;2023-02-27T08:08:16;10.00;;;3.95;;
40669;SDS011;26355;45.528;9.234;2023-02-27T08:10:42;10.52;;;3.53;;
40669;SDS011;26355;45.528;9.234;2023-02-27T08:13:07;12.57;;;4.00;;
40669;SDS011;26355;45.528;9.234;2023-02-27T08:15:33;11.85;;;3.75;;
40669;SDS011;26355;45.528;9.234;2023-02-27T08:17:59;12.82;;;4.32;;
40669;SDS011;26355;45.528;9.234;2023-02-27T08:20:24;11.68;;;4.10;;
40669;SDS011;26355;45.528;9.234;2023-02-27T08:22:50;13.88;;;4.30;;
40669;SDS011;26355;45.528;9.234;2023-02-27T08:25:15;14.65;;;4.72;;
40669;SDS011;26355;45.528;9.234;2023-02-27T08:27:41;12.20;;;4.20;;
40669;SDS011;26355;45.528;9.234;2023-02-27T08:30:09;13.18;;;4.88;;
40669;SDS011;26355;45.528;9.234;2023-02-27T08:32:35;42.80;;;31.17;;
40669;SDS011;26355;45.528;9.234;2023-02-27T08:35:02;17.17;;;8.53;;
40669;SDS011;26355;45.528;9.234;2023-02-27T08:37:28;13.55;;;5.72;;
40669;SDS011;26355;45.528;9.234;2023-02-27T08:39:54;14.18;;;5.43;;
40669;SDS011;26355;45.528;9.234;2023-02-27T08:42:20;13.57;;;4.90;;
40669;SDS011;26355;45.528;9.234;2023-02-27T08:44:45;13.48;;;5.07;;
40669;SDS011;26355;45.528;9.234;2023-02-27T08:47:11;13.05;;;5.18;;
40669;SDS011;26355;45.528;9.234;2023-02-27T08:49:36;13.73;;;4.88;;
40669;SDS011;26355;45.528;9.234;2023-02-27T08:52:05;12.55;;;4.80;;
40669;SDS011;26355;45.528;9.234;2023-02-27T08:54:33;13.80;;;5.15;;
40669;SDS011;26355;45.528;9.234;2023-02-27T08:56:58;13.38;;;4.78;;
40669;SDS011;26355;45.528;9.234;2023-02-27T08:59:24;12.93;;;4.63;;
40669;SDS011;26355;45.528;9.234;2023-02-27T09:01:49;12.40;;;4.30;;
40669;SDS011;26355;45.528;9.234;2023-02-27T09:04:15;13.00;;;4.53;;
40669;SDS011;26355;45.528;9.234;2023-02-27T09:06:40;10.90;;;4.18;;
40669;SDS011;26355;45.528;9.234;2023-02-27T09:09:06;11.55;;;4.40;;
40669;SDS011;26355;45.528;9.234;2023-02-27T09:11:32;12.85;;;4.63;;
40669;SDS011;26355;45.528;9.234;2023-02-27T09:13:57;13.13;;;4.68;;
40669;SDS011;26355;45.528;9.234;2023-02-27T09:16:24;16.33;;;5.03;;
40669;SDS011;26355;45.528;9.234;2023-02-27T09:18:50;16.85;;;5.13;;
40669;SDS011;26355;45.528;9.234;2023-02-27T09:21:16;13.90;;;5.72;;
40669;SDS011;26355;45.528;9.234;2023-02-27T09:23:42;16.90;;;5.45;;
40669;SDS011;26355;45.528;9.234;2023-02-27T09:26:08;14.10;;;4.75;;
40669;SDS011;26355;45.528;9.234;2023-02-27T09:28:34;14.00;;;4.47;;
40669;SDS011;26355;45.528;9.234;2023-02-27T09:31:01;12.80;;;4.70;;
40669;SDS011;26355;45.528;9.234;2023-02-27T09:33:28;13.35;;;5.38;;
40669;SDS011;26355;45.528;9.234;2023-02-27T09:35:55;15.93;;;5.97;;
40669;SDS011;26355;45.528;9.234;2023-02-27T09:38:20;17.95;;;5.68;;
40669;SDS011;26355;45.528;9.234;2023-02-27T09:40:46;13.50;;;4.88;;
40669;SDS011;26355;45.528;9.234;2023-02-27T09:43:16;12.88;;;4.30;;
40669;SDS011;26355;45.528;9.234;2023-02-27T09:45:46;13.65;;;4.78;;
40669;SDS011;26355;45.528;9.234;2023-02-27T09:50:58;14.15;;;4.80;;
40669;SDS011;26355;45.528;9.234;2023-02-27T09:53:37;14.13;;;5.43;;
40669;SDS011;26355;45.528;9.234;2023-02-27T09:56:06;17.70;;;5.45;;
40669;SDS011;26355;45.528;9.234;2023-02-27T10:01:34;16.27;;;6.78;;
40669;SDS011;26355;45.528;9.234;2023-02-27T10:06:41;14.80;;;5.50;;
40669;SDS011;26355;45.528;9.234;2023-02-27T10:11:37;14.75;;;4.55;;
40669;SDS011;26355;45.528;9.234;2023-02-27T10:17:03;14.43;;;4.88;;
40669;SDS011;26355;45.528;9.234;2023-02-27T10:19:36;12.20;;;4.47;;
40669;SDS011;26355;45.528;9.234;2023-02-27T10:22:05;14.07;;;4.78;;
40669;SDS011;26355;45.528;9.234;2023-02-27T10:24:41;15.02;;;4.72;;
40669;SDS011;26355;45.528;9.234;2023-02-27T10:27:13;12.13;;;4.40;;
40669;SDS011;26355;45.528;9.234;2023-02-27T10:29:43;12.50;;;5.00;;
40669;SDS011;26355;45.528;9.234;2023-02-27T10:32:14;9.32;;;3.35;;
40669;SDS011;26355;45.528;9.234;2023-02-27T10:34:53;13.63;;;4.35;;
40669;SDS011;26355;45.528;9.234;2023-02-27T10:37:22;12.07;;;4.65;;
40669;SDS011;26355;45.528;9.234;2023-02-27T10:39:51;13.80;;;4.50;;
40669;SDS011;26355;45.528;9.234;2023-02-27T10:42:20;14.00;;;5.20;;
40669;SDS011;26355;45.528;9.234;2023-02-27T10:44:47;13.10;;;4.60;;
40669;SDS011;26355;45.528;9.234;2023-02-27T10:47:17;11.75;;;4.20;;
40669;SDS011;26355;45.528;9.234;2023-02-27T10:49:46;11.38;;;3.80;;
40669;SDS011;26355;45.528;9.234;2023-02-27T10:52:13;15.23;;;4.43;;
40669;SDS011;26355;45.528;9.234;2023-02-27T10:54:40;11.98;;;4.30;;
40669;SDS011;26355;45.528;9.234;2023-02-27T10:57:26;8.93;;;3.50;;
40669;SDS011;26355;45.528;9.234;2023-02-27T10:59:56;12.30;;;3.97;;
40669;SDS011;26355;45.528;9.234;2023-02-27T11:02:39;13.55;;;3.70;;
40669;SDS011;26355;45.528;9.234;2023-02-27T11:05:27;12.35;;;4.38;;
40669;SDS011;26355;45.528;9.234;2023-02-27T11:07:55;12.07;;;4.45;;
40669;SDS011;26355;45.528;9.234;2023-02-27T11:10:56;10.65;;;4.00;;
40669;SDS011;26355;45.528;9.234;2023-02-27T11:13:26;12.32;;;4.90;;
40669;SDS011;26355;45.528;9.234;2023-02-27T11:16:07;13.07;;;5.43;;
40669;SDS011;26355;45.528;9.234;2023-02-27T11:21:18;12.98;;;4.82;;
40669;SDS011;26355;45.528;9.234;2023-02-27T11:34:17;13.38;;;4.97;;
40669;SDS011;26355;45.528;9.234;2023-02-27T11:37:06;17.63;;;4.82;;
40669;SDS011;26355;45.528;9.234;2023-02-27T11:40:15;11.52;;;4.30;;
40669;SDS011;26355;45.528;9.234;2023-02-27T11:42:47;12.95;;;4.65;;
40669;SDS011;26355;45.528;9.234;2023-02-27T11:45:37;13.43;;;4.97;;
40669;SDS011;26355;45.528;9.234;2023-02-27T11:48:40;14.60;;;5.55;;
40669;SDS011;26355;45.528;9.234;2023-02-27T11:51:16;14.18;;;4.85;;
40669;SDS011;26355;45.528;9.234;2023-02-27T11:56:42;13.05;;;4.78;;
40669;SDS011;26355;45.528;9.234;2023-02-27T12:01:42;10.70;;;3.85;;
40669;SDS011;26355;45.528;9.234;2023-02-27T12:04:28;11.07;;;4.30;;
40669;SDS011;26355;45.528;9.234;2023-02-27T12:07:15;13.32;;;5.10;;
40669;SDS011;26355;45.528;9.234;2023-02-27T12:12:14;12.65;;;4.80;;
40669;SDS011;26355;45.528;9.234;2023-02-27T12:14:54;10.75;;;3.65;;
40669;SDS011;26355;45.528;9.234;2023-02-27T12:17:32;9.90;;;3.35;;
40669;SDS011;26355;45.528;9.234;2023-02-27T12:25:51;11.05;;;3.90;;
40669;SDS011;26355;45.528;9.234;2023-02-27T12:28:44;13.30;;;4.32;;
40669;SDS011;26355;45.528;9.234;2023-02-27T12:37:01;11.43;;;3.72;;
40669;SDS011;26355;45.528;9.234;2023-02-27T12:39:29;9.15;;;3.50;;
40669;SDS011;26355;45.528;9.234;2023-02-27T12:50:24;12.70;;;4.20;;
40669;SDS011;26355;45.528;9.234;2023-02-27T13:04:45;8.52;;;3.50;;
40669;SDS011;26355;45.528;9.234;2023-02-27T13:07:32;9.93;;;3.20;;
40669;SDS011;26355;45.528;9.234;2023-02-27T13:10:09;11.15;;;3.40;;
40669;SDS011;26355;45.528;9.234;2023-02-27T13:15:41;11.00;;;3.53;;
40669;SDS011;26355;45.528;9.234;2023-02-27T13:18:26;8.77;;;3.40;;
40669;SDS011;26355;45.528;9.234;2023-02-27T13:21:20;9.82;;;3.10;;
40669;SDS011;26355;45.528;9.234;2023-02-27T13:24:05;10.65;;;3.65;;
40669;SDS011;26355;45.528;9.234;2023-02-27T13:27:06;10.48;;;3.55;;
40669;SDS011;26355;45.528;9.234;2023-02-27T13:29:37;9.38;;;2.88;;
40669;SDS011;26355;45.528;9.234;2023-02-27T13:32:25;10.55;;;3.53;;
40669;SDS011;26355;45.528;9.234;2023-02-27T13:37:57;10.73;;;3.35;;
40669;SDS011;26355;45.528;9.234;2023-02-27T13:46:00;7.93;;;2.80;;
40669;SDS011;26355;45.528;9.234;2023-02-27T13:51:04;9.38;;;3.03;;
40669;SDS011;26355;45.528;9.234;2023-02-27T13:53:32;8.57;;;3.05;;
40669;SDS011;26355;45.528;9.234;2023-02-27T13:56:16;8.32;;;2.83;;
40669;SDS011;26355;45.528;9.234;2023-02-27T13:58:44;7.95;;;3.05;;
40669;SDS011;26355;45.528;9.234;2023-02-27T14:01:14;7.65;;;3.00;;
40669;SDS011;26355;45.528;9.234;2023-02-27T14:03:51;13.40;;;3.67;;
40669;SDS011;26355;45.528;9.234;2023-02-27T14:06:23;8.90;;;2.90;;
40669;SDS011;26355;45.528;9.234;2023-02-27T14:11:24;9.07;;;3.13;;
40669;SDS011;26355;45.528;9.234;2023-02-27T14:24:57;8.60;;;3.25;;
40669;SDS011;26355;45.528;9.234;2023-02-27T14:27:32;9.45;;;2.92;;
40669;SDS011;26355;45.528;9.234;2023-02-27T14:32:47;12.27;;;4.53;;
40669;SDS011;26355;45.528;9.234;2023-02-27T14:35:21;11.40;;;3.65;;
40669;SDS011;26355;45.528;9.234;2023-02-27T14:37:46;10.65;;;3.40;;
40669;SDS011;26355;45.528;9.234;2023-02-27T14:43:18;10.05;;;3.17;;
40669;SDS011;26355;45.528;9.234;2023-02-27T14:46:12;7.75;;;3.30;;
40669;SDS011;26355;45.528;9.234;2023-02-27T14:49:00;11.38;;;3.88;;
40669;SDS011;26355;45.528;9.234;2023-02-27T14:51:31;9.00;;;3.22;;
40669;SDS011;26355;45.528;9.234;2023-02-27T14:56:40;11.13;;;3.30;;
40669;SDS011;26355;45.528;9.234;2023-02-27T15:01:54;9.73;;;3.35;;
40669;SDS011;26355;45.528;9.234;2023-02-27T15:04:22;11.57;;;3.42;;
40669;SDS011;26355;45.528;9.234;2023-02-27T15:06:51;11.05;;;3.75;;
40669;SDS011;26355;45.528;9.234;2023-02-27T15:12:04;10.75;;;3.67;;
40669;SDS011;26355;45.528;9.234;2023-02-27T15:14:32;9.13;;;3.95;;
40669;SDS011;26355;45.528;9.234;2023-02-27T15:17:00;9.82;;;3.20;;
40669;SDS011;26355;45.528;9.234;2023-02-27T15:19:27;10.43;;;3.40;;
40669;SDS011;26355;45.528;9.234;2023-02-27T15:26:51;11.25;;;3.80;;
40669;SDS011;26355;45.528;9.234;2023-02-27T15:29:20;9.10;;;3.33;;
40669;SDS011;26355;45.528;9.234;2023-02-27T15:31:48;11.50;;;3.72;;
40669;SDS011;26355;45.528;9.234;2023-02-27T15:34:15;12.82;;;3.75;;
40669;SDS011;26355;45.528;9.234;2023-02-27T15:36:44;8.95;;;3.80;;
40669;SDS011;26355;45.528;9.234;2023-02-27T15:39:13;8.75;;;3.42;;
40669;SDS011;26355;45.528;9.234;2023-02-27T15:41:50;12.25;;;3.75;;
40669;SDS011;26355;45.528;9.234;2023-02-27T15:44:19;9.35;;;3.45;;
40669;SDS011;26355;45.528;9.234;2023-02-27T15:46:58;12.60;;;3.67;;
40669;SDS011;26355;45.528;9.234;2023-02-27T15:49:24;11.18;;;3.67;;
40669;SDS011;26355;45.528;9.234;2023-02-27T15:51:54;12.80;;;3.75;;
40669;SDS011;26355;45.528;9.234;2023-02-27T15:54:30;11.63;;;4.32;;
40669;SDS011;26355;45.528;9.234;2023-02-27T15:57:01;19.90;;;5.93;;
40669;SDS011;26355;45.528;9.234;2023-02-27T15:59:28;13.43;;;4.70;;
40669;SDS011;26355;45.528;9.234;2023-02-27T16:01:59;11.82;;;3.90;;
40669;SDS011;26355;45.528;9.234;2023-02-27T16:04:28;11.70;;;4.35;;
40669;SDS011;26355;45.528;9.234;2023-02-27T16:07:00;24.23;;;8.55;;
40669;SDS011;26355;45.528;9.234;2023-02-27T16:12:09;10.73;;;3.55;;
40669;SDS011;26355;45.528;9.234;2023-02-27T16:15:10;10.93;;;4.28;;
40669;SDS011;26355;45.528;9.234;2023-02-27T16:25:38;10.70;;;3.88;;
40669;SDS011;26355;45.528;9.234;2023-02-27T16:28:04;10.43;;;3.95;;
40669;SDS011;26355;45.528;9.234;2023-02-27T16:30:35;11.95;;;4.13;;
40669;SDS011;26355;45.528;9.234;2023-02-27T16:33:01;14.65;;;4.53;;
40669;SDS011;26355;45.528;9.234;2023-02-27T16:35:27;12.10;;;3.85;;
40669;SDS011;26355;45.528;9.234;2023-02-27T16:37:58;14.32;;;5.22;;
40669;SDS011;26355;45.528;9.234;2023-02-27T16:40:25;13.30;;;4.63;;
40669;SDS011;26355;45.528;9.234;2023-02-27T16:42:51;13.80;;;5.25;;
40669;SDS011;26355;45.528;9.234;2023-02-27T16:45:18;16.55;;;5.53;;
40669;SDS011;26355;45.528;9.234;2023-02-27T16:47:49;18.67;;;6.70;;
40669;SDS011;26355;45.528;9.234;2023-02-27T16:50:21;15.73;;;6.07;;
40669;SDS011;26355;45.528;9.234;2023-02-27T16:52:58;13.73;;;5.25;;
40669;SDS011;26355;45.528;9.234;2023-02-27T16:55:24;14.60;;;4.82;;
40669;SDS011;26355;45.528;9.234;2023-02-27T16:57:53;13.35;;;5.03;;
40669;SDS011;26355;45.528;9.234;2023-02-27T17:00:19;13.68;;;4.70;;
40669;SDS011;26355;45.528;9.234;2023-02-27T17:02:46;13.68;;;4.68;;
40669;SDS011;26355;45.528;9.234;2023-02-27T17:05:12;14.27;;;4.72;;
40669;SDS011;26355;45.528;9.234;2023-02-27T17:07:39;16.42;;;4.50;;
40669;SDS011;26355;45.528;9.234;2023-02-27T17:10:05;12.18;;;4.50;;
40669;SDS011;26355;45.528;9.234;2023-02-27T17:12:32;13.00;;;4.50;;
40669;SDS011;26355;45.528;9.234;2023-02-27T17:14:57;12.95;;;4.35;;
40669;SDS011;26355;45.528;9.234;2023-02-27T17:17:23;13.27;;;4.50;;
40669;SDS011;26355;45.528;9.234;2023-02-27T17:19:49;12.50;;;4.60;;
40669;SDS011;26355;45.528;9.234;2023-02-27T17:22:14;13.15;;;5.15;;
40669;SDS011;26355;45.528;9.234;2023-02-27T17:24:40;14.80;;;4.70;;
40669;SDS011;26355;45.528;9.234;2023-02-27T17:27:06;13.02;;;4.63;;
40669;SDS011;26355;45.528;9.234;2023-02-27T17:29:32;14.02;;;4.75;;
40669;SDS011;26355;45.528;9.234;2023-02-27T17:31:58;13.40;;;4.68;;
40669;SDS011;26355;45.528;9.234;2023-02-27T17:34:23;16.83;;;5.07;;
40669;SDS011;26355;45.528;9.234;2023-02-27T17:36:49;13.38;;;4.90;;
40669;SDS011;26355;45.528;9.234;2023-02-27T17:39:14;13.50;;;5.50;;
40669;SDS011;26355;45.528;9.234;2023-02-27T17:41:41;13.52;;;5.60;;
40669;SDS011;26355;45.528;9.234;2023-02-27T17:44:11;16.08;;;5.53;;
40669;SDS011;26355;45.528;9.234;2023-02-27T17:46:37;15.48;;;6.10;;
40669;SDS011;26355;45.528;9.234;2023-02-27T17:49:03;14.65;;;5.38;;
40669;SDS011;26355;45.528;9.234;2023-02-27T17:51:29;14.90;;;5.32;;
40669;SDS011;26355;45.528;9.234;2023-02-27T17:53:56;13.60;;;5.30;;
40669;SDS011;26355;45.528;9.234;2023-02-27T17:56:24;13.48;;;4.80;;
40669;SDS011;26355;45.528;9.234;2023-02-27T17:58:50;14.30;;;5.43;;
40669;SDS011;26355;45.528;9.234;2023-02-27T18:01:16;15.95;;;6.72;;
40669;SDS011;26355;45.528;9.234;2023-02-27T18:03:45;16.67;;;6.05;;
40669;SDS011;26355;45.528;9.234;2023-02-27T18:06:11;16.92;;;5.75;;
40669;SDS011;26355;45.528;9.234;2023-02-27T18:08:40;12.80;;;5.63;;
40669;SDS011;26355;45.528;9.234;2023-02-27T18:11:13;15.82;;;5.75;;
40669;SDS011;26355;45.528;9.234;2023-02-27T18:13:42;16.75;;;5.97;;
40669;SDS011;26355;45.528;9.234;2023-02-27T18:16:08;14.10;;;5.40;;
40669;SDS011;26355;45.528;9.234;2023-02-27T18:18:35;15.70;;;5.82;;